Time;durP1;ratioP1;P1;durP2;ratioP2;P2;SDS_P1;SDS_P2;PMS_P1;PMS_P2;Temp;Humidity;BMP_temperature;BMP_pressure;BME280_temperature;BME280_humidity;BME280_pressure;Samples;Min_cycle;Max_cycle;Signal;HPM_P1;HPM_P2
2022/10/01 00:00:19;;;;;;;6.13;2.70;;;11.90;99.90;;;;;;5059117;28;20203;-75
2022/10/01 00:02:45;;;;;;;6.50;2.77;;;11.90;1.00;;;;;;5055316;28;20252;-76
2022/10/01 00:05:11;;;;;;;3.67;2.47;;;12.00;1.00;;;;;;5054796;28;20187;-76
2022/10/01 00:07:42;;;;;;;4.20;2.57;;;12.00;99.90;;;;;;5059724;28;20188;-75
2022/10/01 00:10:09;;;;;;;5.97;2.50;;;12.00;99.90;;;;;;5058201;28;20239;-75
2022/10/01 00:12:36;;;;;;;5.40;3.23;;;11.90;1.00;;;;;;5054135;28;20207;-75
2022/10/01 00:15:02;;;;;;;4.77;3.33;;;11.90;1.00;;;;;;5047393;28;20654;-76
2022/10/01 00:17:28;;;;;;;5.60;3.20;;;12.00;75.30;;;;;;5057909;28;20179;-75
2022/10/01 00:19:54;;;;;;;4.77;3.33;;;11.90;99.90;;;;;;5058001;28;20226;-75
2022/10/01 00:22:20;;;;;;;4.70;3.27;;;11.90;99.90;;;;;;5059355;28;20221;-75
2022/10/01 00:24:46;;;;;;;7.37;3.20;;;11.80;99.90;;;;;;5037785;28;20271;-75
2022/10/01 00:27:12;;;;;;;3.87;3.00;;;12.00;99.90;;;;;;5038048;28;20180;-75
2022/10/01 00:29:39;;;;;;;4.87;3.50;;;11.70;99.90;;;;;;5048636;28;20207;-75
2022/10/01 00:32:05;;;;;;;3.73;3.33;;;11.70;99.90;;;;;;5055410;28;20272;-76
2022/10/01 00:34:30;;;;;;;3.77;3.20;;;11.70;99.90;;;;;;5055472;28;20217;-75
2022/10/01 00:36:56;;;;;;;4.83;3.70;;;11.60;99.90;;;;;;5043464;28;20196;-76
2022/10/01 00:39:22;;;;;;;5.40;3.90;;;11.60;99.90;;;;;;5038222;28;20180;-76
2022/10/01 00:41:48;;;;;;;4.37;3.40;;;11.60;99.90;;;;;;5047411;28;20218;-75
2022/10/01 00:44:32;;;;;;;5.33;3.90;;;11.60;99.90;;;;;;5056717;28;20261;-76
2022/10/01 00:47:20;;;;;;;4.90;3.60;;;11.50;99.90;;;;;;5055778;28;20247;-75
2022/10/01 00:49:48;;;;;;;3.90;3.50;;;11.50;99.90;;;;;;5052221;28;20218;-75
2022/10/01 00:52:21;;;;;;;5.13;4.23;;;11.50;99.90;;;;;;5036320;28;20201;-75
2022/10/01 00:54:51;;;;;;;4.37;3.73;;;11.40;99.90;;;;;;5045478;28;20237;-75
2022/10/01 00:57:23;;;;;;;4.27;3.87;;;11.40;99.90;;;;;;5050489;28;20177;-75
2022/10/01 00:59:50;;;;;;;6.03;3.63;;;11.40;99.90;;;;;;5036176;28;20243;-75
2022/10/01 01:02:16;;;;;;;6.57;4.07;;;11.30;99.90;;;;;;5048673;28;20231;-75
2022/10/01 01:04:41;;;;;;;6.30;3.63;;;11.30;99.90;;;;;;5050518;28;20205;-74
2022/10/01 01:07:08;;;;;;;4.13;3.73;;;11.30;99.90;;;;;;5048549;28;20230;-75
2022/10/01 01:09:37;;;;;;;8.30;3.77;;;11.30;99.90;;;;;;5034384;28;20211;-76
2022/10/01 01:12:20;;;;;;;6.80;4.23;;;11.30;99.90;;;;;;5050955;28;20286;-75
2022/10/01 01:15:07;;;;;;;9.93;5.40;;;11.20;99.90;;;;;;5042982;28;20187;-74
2022/10/01 01:17:53;;;;;;;7.43;3.97;;;11.20;99.90;;;;;;5051432;28;20575;-75
2022/10/01 01:20:38;;;;;;;5.13;3.80;;;11.20;99.90;;;;;;5049803;28;20214;-75
2022/10/01 01:23:13;;;;;;;8.83;4.37;;;11.20;99.90;;;;;;5053642;28;20188;-74
2022/10/01 01:25:52;;;;;;;6.77;3.80;;;11.20;99.90;;;;;;5038681;28;20187;-75
2022/10/01 01:28:39;;;;;;;6.87;4.10;;;11.10;99.90;;;;;;5035066;28;20566;-77
2022/10/01 01:31:10;;;;;;;5.47;3.87;;;11.10;99.90;;;;;;5035040;28;20580;-75
2022/10/01 01:33:38;;;;;;;4.80;3.90;;;11.10;99.90;;;;;;5045779;28;20187;-76
2022/10/01 01:36:09;;;;;;;5.17;3.50;;;11.10;99.90;;;;;;5050761;28;20196;-75
2022/10/01 01:38:57;;;;;;;3.73;3.40;;;11.10;99.90;;;;;;5050638;28;20190;-76
2022/10/01 01:41:26;;;;;;;4.67;3.70;;;11.10;99.90;;;;;;5035249;28;20689;-74
2022/10/01 01:43:55;;;;;;;5.87;4.33;;;11.10;99.90;;;;;;5044126;28;20179;-75
2022/10/01 01:46:30;;;;;;;5.23;4.50;;;11.10;99.90;;;;;;5052949;28;20187;-75
2022/10/01 01:48:56;;;;;;;4.60;4.00;;;11.10;99.90;;;;;;5034754;28;20291;-75
2022/10/01 01:51:30;;;;;;;4.70;4.17;;;11.00;99.90;;;;;;5041352;28;20211;-74
2022/10/01 01:53:59;;;;;;;4.93;4.43;;;11.10;99.90;;;;;;5046623;28;20183;-74
2022/10/01 01:56:25;;;;;;;5.30;4.30;;;11.00;99.90;;;;;;5036299;28;20208;-76
2022/10/01 01:58:52;;;;;;;5.77;4.20;;;11.00;99.90;;;;;;5034276;28;20204;-75
2022/10/01 02:01:38;;;;;;;8.70;4.27;;;11.00;99.90;;;;;;5042664;28;20218;-74
2022/10/01 02:04:42;;;;;;;7.80;4.67;;;11.00;99.90;;;;;;5052901;28;20175;-75
2022/10/01 02:07:32;;;;;;;6.13;4.40;;;11.00;99.90;;;;;;5031178;28;20191;-74
2022/10/01 02:10:23;;;;;;;6.43;5.00;;;11.00;99.90;;;;;;5046618;28;20290;-75
2022/10/01 02:13:14;;;;;;;4.50;4.10;;;11.00;99.90;;;;;;5037300;28;20539;-74
2022/10/01 02:16:03;;;;;;;5.73;4.97;;;11.00;99.90;;;;;;5049009;28;20268;-74
2022/10/01 02:18:54;;;;;;;5.37;4.67;;;11.00;99.90;;;;;;5032782;28;20222;-74
2022/10/01 02:21:37;;;;;;;6.87;5.33;;;11.00;99.90;;;;;;5032894;28;20239;-74
2022/10/01 02:24:13;;;;;;;6.93;5.00;;;11.00;99.90;;;;;;5037325;28;20175;-74
2022/10/01 02:26:41;;;;;;;6.27;5.10;;;11.00;99.90;;;;;;5052622;28;20679;-74
2022/10/01 02:29:10;;;;;;;8.23;5.67;;;11.00;99.90;;;;;;5051216;28;20199;-74
2022/10/01 02:31:36;;;;;;;5.10;4.60;;;11.00;99.90;;;;;;5053643;28;20298;-74
2022/10/01 02:34:05;;;;;;;5.33;4.83;;;11.00;99.90;;;;;;5048513;28;20616;-74
2022/10/01 02:36:32;;;;;;;6.60;4.90;;;11.00;99.90;;;;;;5048140;28;20183;-74
2022/10/01 02:38:59;;;;;;;5.70;4.90;;;11.00;99.90;;;;;;5052745;28;20259;-74
2022/10/01 02:41:32;;;;;;;8.07;4.90;;;11.10;99.90;;;;;;5052816;28;20204;-73
2022/10/01 02:44:06;;;;;;;10.07;4.87;;;11.00;99.90;;;;;;5039644;28;20188;-74
2022/10/01 02:47:03;;;;;;;6.77;4.53;;;11.00;99.90;;;;;;5049895;28;20233;-75
2022/10/01 02:49:30;;;;;;;5.77;4.70;;;11.00;99.90;;;;;;5049125;28;20203;-75
2022/10/01 02:52:06;;;;;;;5.73;4.60;;;11.00;99.90;;;;;;5052560;28;20300;-74
2022/10/01 02:54:50;;;;;;;5.40;4.50;;;11.00;99.90;;;;;;5052753;28;20707;-74
2022/10/01 02:57:23;;;;;;;7.50;4.40;;;11.00;99.90;;;;;;5056504;28;20533;-75
2022/10/01 03:00:14;;;;;;;5.40;4.90;;;11.00;99.90;;;;;;5045148;28;20271;-75
2022/10/01 03:02:40;;;;;;;7.73;5.07;;;11.00;99.90;;;;;;5046249;28;20183;-74
2022/10/01 03:05:06;;;;;;;5.70;4.70;;;11.00;99.90;;;;;;5035968;28;20218;-75
2022/10/01 03:07:36;;;;;;;8.90;4.77;;;11.00;99.90;;;;;;5036236;28;20244;-74
2022/10/01 03:10:03;;;;;;;5.13;4.47;;;11.00;99.90;;;;;;5049194;28;20212;-74
2022/10/01 03:12:29;;;;;;;6.80;4.00;;;11.00;99.90;;;;;;5039146;28;20234;-76
2022/10/01 03:14:54;;;;;;;5.00;4.27;;;11.00;99.90;;;;;;5040551;28;20192;-74
2022/10/01 03:17:20;;;;;;;5.53;4.20;;;11.00;99.90;;;;;;5057004;28;20262;-75
2022/10/01 03:19:46;;;;;;;6.57;4.30;;;10.90;99.90;;;;;;5052648;28;20184;-74
2022/10/01 03:22:14;;;;;;;4.93;4.20;;;10.90;99.90;;;;;;5036887;28;20241;-74
2022/10/01 03:24:39;;;;;;;5.87;4.67;;;10.90;99.90;;;;;;5037573;28;20192;-74
2022/10/01 03:27:05;;;;;;;6.77;4.20;;;10.90;99.90;;;;;;5056045;28;20195;-74
2022/10/01 03:29:31;;;;;;;4.83;4.30;;;10.90;99.90;;;;;;5055437;28;20196;-74
2022/10/01 03:31:56;;;;;;;5.37;4.30;;;10.90;99.90;;;;;;5054521;28;20203;-74
2022/10/01 03:34:22;;;;;;;6.00;4.20;;;10.90;99.90;;;;;;5056316;28;20250;-74
2022/10/01 03:36:50;;;;;;;6.50;4.27;;;10.90;99.90;;;;;;5056935;28;20172;-74
2022/10/01 03:39:16;;;;;;;5.50;3.63;;;10.90;99.90;;;;;;5056599;28;20202;-76
2022/10/01 03:41:42;;;;;;;4.27;3.63;;;10.90;99.90;;;;;;5055239;28;20199;-74
2022/10/01 03:44:07;;;;;;;4.87;4.03;;;10.90;99.90;;;;;;5055247;28;20233;-73
2022/10/01 03:46:32;;;;;;;4.67;3.60;;;10.90;99.90;;;;;;5045328;28;20267;-74
2022/10/01 03:48:59;;;;;;;4.27;3.80;;;10.90;99.90;;;;;;5053263;28;20210;-74
2022/10/01 03:51:27;;;;;;;4.03;3.37;;;10.90;99.90;;;;;;5051068;28;20287;-74
2022/10/01 03:53:52;;;;;;;4.97;3.63;;;10.90;99.90;;;;;;5038572;28;20241;-74
2022/10/01 03:56:18;;;;;;;5.93;3.60;;;10.90;99.90;;;;;;5054944;28;20645;-74
2022/10/01 03:58:44;;;;;;;4.00;3.23;;;10.90;99.90;;;;;;5055125;28;20638;-75
2022/10/01 04:01:09;;;;;;;3.80;3.10;;;10.90;99.90;;;;;;5084609;22;20273;-75
2022/10/01 04:03:35;;;;;;;4.57;3.60;;;10.90;99.90;;;;;;5075358;28;20179;-75
2022/10/01 04:06:01;;;;;;;3.73;3.23;;;10.90;99.90;;;;;;5074853;28;20201;-76
2022/10/01 04:08:26;;;;;;;4.10;3.60;;;10.90;99.90;;;;;;5074113;28;20633;-75
2022/10/01 04:10:52;;;;;;;5.13;3.57;;;10.90;99.90;;;;;;5074227;28;20275;-76
2022/10/01 04:13:17;;;;;;;5.20;3.23;;;10.90;99.90;;;;;;5072067;28;20560;-76
2022/10/01 04:15:43;;;;;;;4.27;3.00;;;10.90;99.90;;;;;;5072784;28;20181;-76
2022/10/01 04:18:09;;;;;;;3.10;2.67;;;10.90;99.90;;;;;;5074003;28;20264;-76
2022/10/01 04:20:36;;;;;;;3.60;2.53;;;10.90;99.90;;;;;;5071118;28;20690;-76
2022/10/01 04:23:03;;;;;;;4.50;2.73;;;10.90;99.90;;;;;;5075045;28;20182;-75
2022/10/01 04:25:29;;;;;;;3.33;3.03;;;10.90;99.90;;;;;;5073764;28;20521;-75
2022/10/01 04:28:03;;;;;;;3.53;2.70;;;10.90;99.90;;;;;;5074902;28;20178;-76
2022/10/01 04:30:33;;;;;;;3.10;2.80;;;10.90;99.90;;;;;;5071752;28;20206;-76
2022/10/01 04:32:59;;;;;;;3.67;3.00;;;10.90;99.90;;;;;;5073234;28;20244;-76
2022/10/01 04:35:25;;;;;;;9.53;2.93;;;10.90;99.90;;;;;;5072423;28;20597;-76
2022/10/01 04:38:15;;;;;;;3.27;2.97;;;11.00;99.90;;;;;;5073641;28;20194;-76
2022/10/01 04:40:41;;;;;;;3.73;2.90;;;10.90;99.90;;;;;;5064515;28;20196;-77
2022/10/01 04:43:08;;;;;;;4.20;3.10;;;11.00;99.90;;;;;;5070098;28;20182;-77
2022/10/01 04:45:34;;;;;;;5.40;3.33;;;10.90;99.90;;;;;;5064930;28;20274;-77
2022/10/01 04:48:00;;;;;;;3.50;3.20;;;11.00;99.90;;;;;;5054377;28;20171;-77
2022/10/01 04:50:26;;;;;;;5.20;3.10;;;11.00;99.90;;;;;;5066532;28;20202;-76
2022/10/01 04:52:52;;;;;;;5.50;3.30;;;10.90;99.90;;;;;;5071725;28;20218;-77
2022/10/01 04:55:19;;;;;;;3.50;3.10;;;11.00;99.90;;;;;;5071991;28;20550;-76
2022/10/01 04:57:45;;;;;;;3.93;3.27;;;11.00;99.90;;;;;;5069286;28;20172;-77
2022/10/01 05:00:13;;;;;;;4.07;3.20;;;11.00;99.90;;;;;;5071458;28;20561;-77
2022/10/01 05:02:39;;;;;;;4.60;2.97;;;11.00;99.90;;;;;;5072657;28;20218;-76
2022/10/01 05:05:06;;;;;;;4.33;2.90;;;11.00;99.90;;;;;;5072209;28;20179;-77
2022/10/01 05:07:32;;;;;;;3.77;2.60;;;11.00;99.90;;;;;;5071404;28;20183;-77
2022/10/01 05:09:59;;;;;;;4.63;2.67;;;11.00;99.90;;;;;;5071784;28;20265;-76
2022/10/01 05:12:25;;;;;;;5.00;2.30;;;11.00;99.90;;;;;;5072463;28;20645;-76
2022/10/01 05:14:52;;;;;;;3.80;2.47;;;11.00;99.90;;;;;;5071335;28;20186;-75
2022/10/01 05:17:18;;;;;;;3.30;2.53;;;11.00;99.90;;;;;;5070558;28;20197;-75
2022/10/01 05:19:44;;;;;;;3.07;2.53;;;11.10;99.90;;;;;;5070909;28;20182;-75
2022/10/01 05:22:11;;;;;;;2.10;1.90;;;11.10;99.90;;;;;;5072181;28;20676;-76
2022/10/01 05:24:36;;;;;;;1.80;1.70;;;11.10;99.90;;;;;;5072686;28;20179;-76
2022/10/01 05:27:02;;;;;;;2.47;1.40;;;11.10;99.90;;;;;;5072525;28;20179;-76
2022/10/01 05:29:27;;;;;;;2.03;1.23;;;11.20;99.90;;;;;;5070803;28;20248;-76
2022/10/01 05:31:53;;;;;;;2.97;1.20;;;11.20;99.90;;;;;;5073367;28;20194;-76
2022/10/01 05:34:19;;;;;;;1.20;1.10;;;11.20;99.90;;;;;;5067575;28;20178;-76
2022/10/01 05:36:44;;;;;;;3.50;1.30;;;11.20;99.90;;;;;;5071177;28;20215;-76
2022/10/01 05:39:10;;;;;;;1.47;1.30;;;11.20;99.90;;;;;;5071391;28;20271;-76
2022/10/01 05:41:37;;;;;;;1.73;1.40;;;11.20;99.90;;;;;;5072144;28;20195;-76
2022/10/01 05:44:02;;;;;;;1.40;1.20;;;11.20;99.90;;;;;;5070358;28;20171;-76
2022/10/01 05:46:28;;;;;;;4.50;1.10;;;11.30;99.90;;;;;;5063924;28;20186;-77
2022/10/01 05:48:53;;;;;;;1.20;1.03;;;11.30;99.90;;;;;;5056532;28;20202;-76
2022/10/01 05:51:19;;;;;;;2.90;1.20;;;11.30;99.90;;;;;;5073168;28;20183;-76
2022/10/01 05:53:47;;;;;;;1.07;0.80;;;11.30;99.90;;;;;;5070561;28;20178;-76
2022/10/01 05:56:14;;;;;;;0.80;0.70;;;11.40;99.90;;;;;;5070937;28;20220;-76
2022/10/01 05:58:39;;;;;;;1.43;1.00;;;11.40;99.90;;;;;;5069173;28;20591;-76
2022/10/01 06:01:05;;;;;;;1.20;0.83;;;11.40;99.90;;;;;;5071764;28;20293;-76
2022/10/01 06:03:31;;;;;;;1.53;0.53;;;11.40;99.90;;;;;;5070319;28;20185;-77
2022/10/01 06:05:56;;;;;;;1.67;0.60;;;11.40;99.90;;;;;;5069757;28;20202;-76
2022/10/01 06:08:22;;;;;;;0.70;0.70;;;11.50;99.90;;;;;;5071963;28;20179;-76
2022/10/01 06:10:48;;;;;;;0.57;0.57;;;11.50;99.90;;;;;;5071772;28;20206;-75
2022/10/01 06:13:16;;;;;;;0.50;0.40;;;11.50;99.90;;;;;;5068001;28;20190;-76
2022/10/01 06:15:43;;;;;;;0.63;0.40;;;11.60;99.90;;;;;;5071824;28;20177;-76
2022/10/01 06:18:10;;;;;;;0.47;0.47;;;11.60;99.90;;;;;;5071863;28;20622;-76
2022/10/01 06:20:37;;;;;;;0.30;0.30;;;11.60;99.90;;;;;;5070064;28;20270;-76
2022/10/01 06:23:06;;;;;;;0.50;0.50;;;11.60;99.90;;;;;;5070143;28;20178;-76
2022/10/01 06:25:33;;;;;;;0.20;0.20;;;11.60;99.90;;;;;;5071702;28;20185;-76
2022/10/01 06:28:00;;;;;;;0.20;0.20;;;11.60;99.90;;;;;;5070615;28;20258;-76
2022/10/01 06:30:28;;;;;;;0.20;0.20;;;11.70;99.90;;;;;;5067521;28;20198;-78
2022/10/01 06:33:05;;;;;;;0.30;0.30;;;11.70;99.90;;;;;;5066041;28;20696;-77
2022/10/01 06:35:31;;;;;;;0.77;0.40;;;11.70;99.90;;;;;;5045256;28;20657;-77
2022/10/01 06:37:57;;;;;;;0.50;0.30;;;11.70;99.90;;;;;;5061163;28;20178;-77
2022/10/01 06:40:23;;;;;;;0.83;0.50;;;11.70;99.90;;;;;;5074484;28;20269;-77
2022/10/01 06:42:50;;;;;;;0.73;0.33;;;11.70;99.90;;;;;;5074051;28;20230;-77
2022/10/01 06:45:17;;;;;;;0.93;0.40;;;11.80;99.90;;;;;;5068716;28;20276;-77
2022/10/01 06:47:43;;;;;;;0.70;0.40;;;11.80;99.90;;;;;;5056798;28;20167;-77
2022/10/01 06:50:08;;;;;;;1.53;0.50;;;11.80;99.90;;;;;;5070730;28;20199;-77
2022/10/01 06:52:50;;;;;;;2.80;0.40;;;11.80;99.90;;;;;;5072536;28;20207;-77
2022/10/01 06:55:16;;;;;;;0.53;0.37;;;12.00;99.90;;;;;;5048352;28;20633;-77
2022/10/01 06:57:42;;;;;;;0.93;0.40;;;11.90;99.90;;;;;;5070559;28;20176;-76
2022/10/01 07:00:08;;;;;;;2.63;0.50;;;11.80;99.90;;;;;;5074246;28;20178;-77
2022/10/01 07:02:33;;;;;;;1.80;0.40;;;11.90;99.90;;;;;;5073713;28;20226;-77
2022/10/01 07:04:59;;;;;;;1.33;0.50;;;11.90;99.90;;;;;;5072243;28;20555;-77
2022/10/01 07:07:29;;;;;;;0.40;0.33;;;11.90;99.90;;;;;;5074095;28;20182;-77
2022/10/01 07:09:56;;;;;;;0.30;0.30;;;12.00;99.90;;;;;;5068581;28;20282;-77
2022/10/01 07:12:22;;;;;;;2.00;0.30;;;12.10;99.90;;;;;;5056244;28;20206;-77
2022/10/01 07:14:47;;;;;;;0.67;0.40;;;12.10;99.90;;;;;;5056522;28;20172;-77
2022/10/01 07:17:13;;;;;;;0.33;0.33;;;12.10;99.90;;;;;;5056220;28;20246;-77
2022/10/01 07:19:39;;;;;;;0.40;0.40;;;12.10;99.90;;;;;;5056196;28;20182;-76
2022/10/01 07:22:04;;;;;;;0.30;0.30;;;12.20;99.90;;;;;;5056173;28;20560;-76
2022/10/01 07:24:30;;;;;;;0.90;0.50;;;12.20;99.90;;;;;;5055099;28;20179;-77
2022/10/01 07:26:55;;;;;;;0.33;0.33;;;12.20;99.90;;;;;;5055555;28;20179;-77
2022/10/01 07:29:25;;;;;;;0.80;0.60;;;12.30;99.90;;;;;;5054670;28;20681;-77
2022/10/01 07:31:56;;;;;;;0.53;0.53;;;12.30;99.90;;;;;;5042317;28;20204;-77
2022/10/01 07:34:23;;;;;;;1.80;0.53;;;12.30;99.90;;;;;;5036452;28;20685;-77
2022/10/01 07:36:49;;;;;;;1.53;0.50;;;12.30;99.90;;;;;;5043404;28;20172;-77
2022/10/01 07:39:15;;;;;;;1.33;0.60;;;12.30;99.90;;;;;;5056027;28;20530;-77
2022/10/01 07:41:42;;;;;;;0.77;0.53;;;12.40;99.90;;;;;;5054749;28;20673;-77
2022/10/01 07:44:08;;;;;;;0.40;0.40;;;12.40;99.90;;;;;;5055312;28;20176;-76
2022/10/01 07:46:34;;;;;;;2.43;0.57;;;12.50;99.90;;;;;;5055934;28;20175;-77
2022/10/01 07:49:00;;;;;;;0.43;0.40;;;12.50;99.90;;;;;;5055806;28;20286;-77
2022/10/01 07:51:25;;;;;;;1.53;0.70;;;12.60;99.90;;;;;;5054807;28;20286;-77
2022/10/01 07:53:51;;;;;;;3.20;0.97;;;12.60;99.90;;;;;;5054411;28;20176;-78
2022/10/01 07:56:17;;;;;;;1.00;0.73;;;12.70;99.90;;;;;;5054953;28;20172;-78
2022/10/01 07:58:42;;;;;;;2.83;0.93;;;12.70;99.90;;;;;;5056065;28;20186;-79
2022/10/01 08:01:08;;;;;;;0.40;0.30;;;12.80;99.90;;;;;;5055157;28;20211;-78
2022/10/01 08:03:34;;;;;;;1.13;0.60;;;12.80;99.90;;;;;;5045742;28;20187;-77
2022/10/01 08:06:02;;;;;;;1.43;0.60;;;12.80;99.90;;;;;;5054130;28;20179;-77
2022/10/01 08:08:29;;;;;;;2.10;0.53;;;12.80;99.90;;;;;;5055455;28;20547;-77
2022/10/01 08:10:55;;;;;;;0.50;0.50;;;12.90;99.90;;;;;;5054201;28;20626;-76
2022/10/01 08:13:23;;;;;;;1.07;0.80;;;12.90;99.90;;;;;;5055671;28;20183;-77
2022/10/01 08:15:52;;;;;;;1.00;0.57;;;13.00;99.90;;;;;;5054459;28;20246;-77
2022/10/01 08:18:19;;;;;;;2.63;0.60;;;13.10;99.90;;;;;;5054750;28;20178;-77
2022/10/01 08:20:44;;;;;;;1.33;0.70;;;13.10;99.90;;;;;;5054046;28;20179;-77
2022/10/01 08:23:13;;;;;;;0.77;0.77;;;13.20;99.90;;;;;;5055621;28;20530;-77
2022/10/01 08:25:39;;;;;;;1.07;0.73;;;13.20;99.90;;;;;;5055528;28;20163;-77
2022/10/01 08:28:06;;;;;;;1.50;0.87;;;13.20;99.90;;;;;;5055580;28;20175;-77
2022/10/01 08:30:32;;;;;;;1.23;0.77;;;13.30;99.90;;;;;;5055388;28;20194;-77
2022/10/01 08:32:59;;;;;;;1.50;0.70;;;13.30;99.90;;;;;;5055070;28;20530;-77
2022/10/01 08:35:26;;;;;;;1.27;0.80;;;13.30;99.90;;;;;;5053480;28;20175;-77
2022/10/01 08:37:53;;;;;;;1.43;0.80;;;13.30;99.90;;;;;;5055026;28;20175;-77
2022/10/01 08:40:20;;;;;;;1.67;0.73;;;13.30;99.90;;;;;;5055639;28;20179;-79
2022/10/01 08:43:05;;;;;;;1.43;0.77;;;13.40;99.90;;;;;;5055429;28;20184;-76
2022/10/01 08:45:45;;;;;;;4.23;0.80;;;13.40;99.90;;;;;;5054569;28;20175;-76
2022/10/01 08:48:29;;;;;;;0.80;0.70;;;13.50;99.90;;;;;;5055410;28;20182;-78
2022/10/01 08:51:03;;;;;;;2.53;0.83;;;13.50;99.90;;;;;;5054677;28;20294;-78
2022/10/01 08:53:32;;;;;;;3.77;0.80;;;13.60;99.90;;;;;;5054290;28;20167;-78
2022/10/01 08:55:59;;;;;;;1.40;1.00;;;13.60;99.90;;;;;;5059744;28;20182;-78
2022/10/01 08:58:31;;;;;;;2.23;0.97;;;13.60;99.90;;;;;;5051272;28;20178;-78
2022/10/01 09:00:56;;;;;;;4.83;1.13;;;13.70;99.90;;;;;;5041292;28;20231;-78
2022/10/01 09:03:22;;;;;;;2.50;1.10;;;13.70;99.90;;;;;;5034315;28;20635;-78
2022/10/01 09:06:17;;;;;;;2.70;1.10;;;13.70;99.90;;;;;;5055392;28;20229;-78
2022/10/01 09:09:13;;;;;;;1.10;1.00;;;13.80;99.90;;;;;;5054831;28;20188;-78
2022/10/01 09:12:15;;;;;;;2.07;0.97;;;13.80;99.90;;;;;;5055365;28;20565;-78
2022/10/01 09:15:01;;;;;;;3.57;1.10;;;13.90;99.90;;;;;;5053673;28;20590;-78
2022/10/01 09:17:51;;;;;;;3.23;1.33;;;14.00;99.90;;;;;;5054015;28;20660;-78
2022/10/01 09:20:27;;;;;;;1.87;1.10;;;14.00;99.90;;;;;;5055819;28;20191;-78
2022/10/01 09:23:19;;;;;;;1.33;0.93;;;13.90;99.90;;;;;;5053845;28;20244;-78
2022/10/01 09:25:51;;;;;;;4.20;1.47;;;14.00;99.90;;;;;;5045338;28;20569;-77
2022/10/01 09:28:22;;;;;;;1.60;1.10;;;13.90;99.90;;;;;;5052916;28;20168;-77
2022/10/01 09:30:53;;;;;;;2.47;1.30;;;13.90;99.90;;;;;;5052699;28;20239;-77
2022/10/01 09:33:20;;;;;;;3.23;1.57;;;13.90;99.90;;;;;;5052595;28;20206;-77
2022/10/01 09:36:06;;;;;;;3.27;1.40;;;13.90;99.90;;;;;;5051930;28;20577;-77
2022/10/01 09:39:13;;;;;;;2.07;1.33;;;13.90;99.90;;;;;;5053891;28;20167;-77
2022/10/01 09:41:39;;;;;;;2.90;1.20;;;13.90;99.90;;;;;;5029368;28;20207;-77
2022/10/01 09:44:09;;;;;;;2.40;1.23;;;13.90;99.90;;;;;;5052681;28;20613;-77
2022/10/01 09:46:35;;;;;;;3.30;1.47;;;14.00;99.90;;;;;;5054258;28;20159;-77
2022/10/01 09:49:09;;;;;;;2.73;1.30;;;14.00;99.90;;;;;;5052602;28;20585;-77
2022/10/01 09:51:41;;;;;;;3.77;1.40;;;14.00;99.90;;;;;;5053928;28;20219;-77
2022/10/01 09:54:12;;;;;;;3.53;1.23;;;14.00;99.90;;;;;;5054097;28;20637;-77
2022/10/01 09:56:43;;;;;;;4.47;2.33;;;14.10;99.90;;;;;;5053747;28;20152;-77
2022/10/01 09:59:17;;;;;;;4.10;1.60;;;14.10;99.90;;;;;;5053327;28;20175;-77
2022/10/01 10:01:46;;;;;;;2.87;1.63;;;14.20;99.90;;;;;;5088392;22;20275;-78
2022/10/01 10:04:24;;;;;;;2.53;1.43;;;14.20;99.90;;;;;;5098593;28;20491;-77
2022/10/01 10:06:57;;;;;;;3.10;1.47;;;14.20;99.90;;;;;;5098114;28;20160;-77
2022/10/01 10:09:30;;;;;;;3.83;1.67;;;14.30;99.90;;;;;;5098594;28;20257;-77
2022/10/01 10:11:58;;;;;;;2.57;1.40;;;14.30;99.90;;;;;;5098656;28;20190;-77
2022/10/01 10:14:33;;;;;;;2.07;1.30;;;14.30;99.90;;;;;;5096701;28;20185;-77
2022/10/01 10:17:05;;;;;;;1.73;1.63;;;14.40;99.90;;;;;;5082622;28;20517;-77
2022/10/01 10:19:32;;;;;;;2.33;1.30;;;14.40;99.90;;;;;;5078903;28;20159;-77
2022/10/01 10:22:10;;;;;;;2.50;1.50;;;14.30;99.90;;;;;;5079115;28;20183;-78
2022/10/01 10:24:36;;;;;;;2.07;1.20;;;14.40;99.90;;;;;;5077705;28;20175;-78
2022/10/01 10:27:05;;;;;;;3.30;1.23;;;14.40;99.90;;;;;;5078656;28;20175;-78
2022/10/01 10:29:33;;;;;;;2.27;1.20;;;14.40;99.90;;;;;;5079850;28;20199;-77
2022/10/01 10:32:03;;;;;;;1.73;1.17;;;14.50;99.90;;;;;;5078028;28;20228;-79
2022/10/01 10:34:39;;;;;;;1.70;1.20;;;14.50;99.90;;;;;;5079469;28;20262;-77
2022/10/01 10:37:18;;;;;;;2.53;1.20;;;14.60;99.90;;;;;;5079900;28;20146;-77
2022/10/01 10:39:50;;;;;;;3.10;1.10;;;14.70;99.90;;;;;;5075597;28;20206;-77
2022/10/01 10:42:16;;;;;;;3.70;1.13;;;14.70;99.90;;;;;;5076377;28;20191;-75
2022/10/01 10:44:44;;;;;;;4.30;1.40;;;14.70;99.90;;;;;;5077042;28;20171;-77
2022/10/01 10:47:13;;;;;;;6.50;1.60;;;14.80;99.90;;;;;;5076601;28;20206;-77
2022/10/01 10:49:54;;;;;;;8.40;2.13;;;14.70;99.90;;;;;;5075337;28;20199;-78
2022/10/01 10:52:31;;;;;;;8.20;2.10;;;14.70;99.90;;;;;;5078839;28;20564;-77
2022/10/01 10:54:58;;;;;;;3.47;2.07;;;14.80;99.90;;;;;;5094695;28;20169;-77
2022/10/01 10:57:26;;;;;;;6.37;2.27;;;14.80;99.90;;;;;;5096392;28;20182;-77
2022/10/01 10:59:58;;;;;;;4.80;2.27;;;15.00;99.90;;;;;;5096467;28;20215;-78
2022/10/01 11:02:29;;;;;;;5.60;2.47;;;15.10;99.90;;;;;;5096976;28;20202;-77
2022/10/01 11:05:00;;;;;;;10.07;3.33;;;15.20;99.90;;;;;;5096798;28;20197;-77
2022/10/01 11:07:26;;;;;;;7.93;2.80;;;15.30;99.90;;;;;;5084954;28;20233;-77
2022/10/01 11:10:20;;;;;;;5.37;2.40;;;15.40;99.90;;;;;;5076310;28;20199;-76
2022/10/01 11:13:05;;;;;;;5.60;2.30;;;15.50;99.90;;;;;;5075551;28;20197;-78
2022/10/01 11:15:52;;;;;;;6.47;2.30;;;15.60;99.90;;;;;;5078322;28;20147;-77
2022/10/01 11:18:39;;;;;;;6.60;2.57;;;15.80;99.90;;;;;;5080364;28;20181;-77
2022/10/01 11:21:37;;;;;;;6.53;2.43;;;15.90;99.90;;;;;;5080815;28;20520;-77
2022/10/01 11:24:31;;;;;;;7.43;2.83;;;16.00;99.90;;;;;;5079439;28;20228;-78
2022/10/01 11:27:25;;;;;;;5.00;2.33;;;16.10;99.90;;;;;;5079218;28;20238;-78
2022/10/01 11:30:21;;;;;;;5.20;2.33;;;16.20;99.90;;;;;;5079983;28;20236;-77
2022/10/01 11:33:18;;;;;;;7.20;2.30;;;16.20;99.90;;;;;;5077370;28;20568;-76
2022/10/01 11:36:29;;;;;;;5.83;2.00;;;16.20;99.90;;;;;;5071647;28;20256;-78
2022/10/01 11:39:05;;;;;;;6.93;2.13;;;16.30;99.90;;;;;;5069507;28;20210;-77
2022/10/01 11:41:50;;;;;;;5.40;2.00;;;16.40;99.90;;;;;;5080375;28;20198;-77
2022/10/01 11:44:29;;;;;;;4.87;1.87;;;16.50;99.90;;;;;;5080925;28;20165;-79
2022/10/01 11:47:02;;;;;;;7.10;2.17;;;16.50;99.90;;;;;;5083192;28;20571;-79
2022/10/01 11:49:35;;;;;;;4.40;1.90;;;16.70;99.90;;;;;;5080645;28;20199;-78
2022/10/01 11:52:51;;;;;;;4.07;1.40;;;16.70;99.90;;;;;;5081094;28;20248;-78
2022/10/01 11:58:51;;;;;;;5.87;1.73;;;16.80;99.90;;;;;;5072882;28;20222;-78
2022/10/01 12:01:23;;;;;;;9.70;2.43;;;16.80;99.90;;;;;;5078370;28;20170;-81
2022/10/01 12:03:51;;;;;;;3.70;1.63;;;16.80;99.90;;;;;;5079190;28;20620;-81
2022/10/01 12:06:35;;;;;;;6.13;1.73;;;16.80;99.90;;;;;;5078905;28;20177;-81
2022/10/01 12:09:15;;;;;;;7.33;1.87;;;16.80;99.90;;;;;;5080841;28;20554;-80
2022/10/01 12:11:58;;;;;;;6.40;2.00;;;16.90;99.90;;;;;;5080592;28;20183;-80
2022/10/01 12:14:47;;;;;;;8.67;2.10;;;16.90;99.90;;;;;;5080395;28;20179;-81
2022/10/01 12:17:31;;;;;;;6.07;2.03;;;17.00;99.90;;;;;;5076986;28;20186;-81
2022/10/01 12:20:00;;;;;;;5.97;1.77;;;17.00;99.90;;;;;;5080817;28;20220;-81
2022/10/01 12:22:32;;;;;;;7.27;1.60;;;16.90;99.90;;;;;;5079518;28;20190;-81
2022/10/01 12:24:58;;;;;;;8.33;1.80;;;16.80;99.90;;;;;;5079730;28;20548;-81
2022/10/01 12:27:40;;;;;;;7.17;1.90;;;16.70;99.90;;;;;;5076141;28;20179;-80
2022/10/01 12:30:19;;;;;;;8.97;1.80;;;16.60;99.90;;;;;;5076744;28;20251;-82
2022/10/01 12:33:19;;;;;;;6.60;1.77;;;16.60;99.90;;;;;;5076386;28;20202;-81
2022/10/01 12:35:56;;;;;;;7.50;1.80;;;16.70;99.90;;;;;;5077289;28;20163;-81
2022/10/01 12:38:24;;;;;;;9.13;1.53;;;16.80;99.90;;;;;;5077116;28;20496;-81
2022/10/01 12:41:30;;;;;;;6.57;1.50;;;16.90;99.90;;;;;;5077165;28;20186;-81
2022/10/01 12:44:25;;;;;;;6.63;1.70;;;17.00;99.90;;;;;;5077004;28;20167;-80
2022/10/01 12:47:22;;;;;;;2.43;1.07;;;17.00;99.90;;;;;;5076930;28;20177;-82
2022/10/01 12:50:07;;;;;;;7.93;1.63;;;17.10;99.90;;;;;;5077846;28;20198;-81
2022/10/01 12:53:03;;;;;;;7.63;1.60;;;17.10;99.90;;;;;;5082970;28;20225;-81
2022/10/01 12:55:38;;;;;;;6.40;1.43;;;17.10;99.90;;;;;;5101884;28;20167;-78
2022/10/01 12:58:25;;;;;;;6.37;1.80;;;17.00;99.90;;;;;;5101252;28;20165;-78
2022/10/01 13:01:03;;;;;;;9.30;2.17;;;17.10;99.90;;;;;;5100294;28;20186;-78
2022/10/01 13:03:53;;;;;;;7.10;1.80;;;17.10;99.90;;;;;;5101575;28;20235;-78
2022/10/01 13:06:42;;;;;;;4.07;1.53;;;17.30;99.90;;;;;;5087972;28;20355;-78
2022/10/01 13:09:36;;;;;;;10.47;1.97;;;17.30;99.90;;;;;;5058484;28;20215;-78
2022/10/01 13:12:35;;;;;;;10.60;1.93;;;17.10;99.90;;;;;;5077325;28;20282;-78
2022/10/01 13:15:03;;;;;;;10.70;3.43;;;17.00;99.90;;;;;;5074142;28;20179;-77
2022/10/01 13:17:47;;;;;;;8.77;2.00;;;17.10;99.90;;;;;;5077499;28;20167;-77